Time,TemperatureF,DewpointF,PressureIn,WindDirection,WindDirectionDegrees,WindSpeedMPH,WindSpeedGustMPH,Humidity,HourlyPrecipIn,Conditions,Clouds,dailyrainin,SoftwareType,DateUTC
2013-04-09 00:10:00,67.3,62.0,29.86,South,184,0.0,-999.0,83,-99.99,,,0.00,weatherlink.com 1.10,2013-04-09 05:10:00,
2013-04-09 00:25:00,67.1,62.0,29.85,SSE,151,0.0,-999.0,84,-99.99,,,0.00,weatherlink.com 1.10,2013-04-09 05:25:00,
2013-04-09 00:40:00,67.1,63.0,29.85,SE,136,1.0,-999.0,85,-99.99,,,0.00,weatherlink.com 1.10,2013-04-09 05:40:00,
2013-04-09 00:55:00,67.1,63.0,29.85,South,171,5.0,-999.0,85,-99.99,,,0.00,weatherlink.com 1.10,2013-04-09 05:55:00,
2013-04-09 01:10:00,67.1,63.0,29.85,SE,144,5.0,-999.0,86,-99.99,,,0.00,weatherlink.com 1.10,2013-04-09 06:10:00,
2013-04-09 01:25:00,67.1,63.0,29.85,SSE,152,5.0,-999.0,86,-99.99,,,0.00,weatherlink.com 1.10,2013-04-09 06:25:00,
2013-04-09 01:40:00,67.1,63.0,29.84,South,175,0.0,-999.0,87,-99.99,,,0.00,weatherlink.com 1.10,2013-04-09 06:40:00,
2013-04-09 01:55:00,67.1,63.0,29.84,South,171,3.0,-999.0,87,-99.99,,,0.00,weatherlink.com 1.10,2013-04-09 06:55:00,
2013-04-09 02:10:00,67.3,64.0,29.83,SE,137,0.0,-999.0,88,-99.99,,,0.00,weatherlink.com 1.10,2013-04-09 07:10:00,
2013-04-09 02:25:00,67.4,64.0,29.82,South,171,2.0,-999.0,88,-99.99,,,0.00,weatherlink.com 1.10,2013-04-09 07:25:00,
2013-04-09 02:40:00,67.3,64.0,29.82,SSE,160,2.0,-999.0,88,-99.99,,,0.00,weatherlink.com 1.10,2013-04-09 07:40:00,
2013-04-09 02:55:00,67.3,64.0,29.82,SE,141,0.0,-999.0,89,-99.99,,,0.00,weatherlink.com 1.10,2013-04-09 07:55:00,
2013-04-09 03:10:00,67.4,64.0,29.82,ESE,121,2.0,-999.0,89,-99.99,,,0.00,weatherlink.com 1.10,2013-04-09 08:10:00,
2013-04-09 03:25:00,67.3,64.0,29.81,SSE,168,1.0,-999.0,89,-99.99,,,0.00,weatherlink.com 1.10,2013-04-09 08:25:00,
2013-04-09 03:40:00,67.3,64.0,29.81,SSE,168,7.0,-999.0,89,-99.99,,,0.00,weatherlink.com 1.10,2013-04-09 08:40:00,
2013-04-09 03:55:00,67.4,64.0,29.81,SSE,154,3.0,-999.0,89,-99.99,,,0.00,weatherlink.com 1.10,2013-04-09 08:55:00,
2013-04-09 04:10:00,67.6,64.0,29.81,SSE,164,4.0,-999.0,89,-99.99,,,0.00,weatherlink.com 1.10,2013-04-09 09:10:00,
2013-04-09 04:25:00,67.6,64.0,29.81,South,175,0.0,-999.0,89,-99.99,,,0.00,weatherlink.com 1.10,2013-04-09 09:25:00,
2013-04-09 04:40:00,67.4,64.0,29.81,ESE,121,0.0,-999.0,89,-99.99,,,0.00,weatherlink.com 1.10,2013-04-09 09:40:00,
2013-04-09 04:55:00,67.3,64.0,29.81,SSE,158,0.0,-999.0,89,-99.99,,,0.00,weatherlink.com 1.10,2013-04-09 09:55:00,
2013-04-09 05:10:00,67.3,64.0,29.81,SSE,160,0.0,-999.0,90,-99.99,,,0.00,weatherlink.com 1.10,2013-04-09 10:10:00,
2013-04-09 05:25:00,67.1,64.0,29.82,South,171,0.0,-999.0,90,-99.99,,,0.00,weatherlink.com 1.10,2013-04-09 10:25:00,
2013-04-09 05:39:00,67.1,64.0,29.82,SSE,150,1.0,-999.0,90,-99.99,,,0.00,weatherlink.com 1.10,2013-04-09 10:39:00,
2013-04-09 05:55:00,67.1,65.0,29.83,SSE,155,1.0,-999.0,91,-99.99,,,0.00,weatherlink.com 1.10,2013-04-09 10:55:00,
2013-04-09 06:10:00,66.9,64.0,29.83,SSE,168,7.0,-999.0,91,-99.99,,,0.00,weatherlink.com 1.10,2013-04-09 11:10:00,
2013-04-09 06:25:00,66.8,64.0,29.83,SSE,161,3.0,-999.0,91,-99.99,,,0.00,weatherlink.com 1.10,2013-04-09 11:25:00,
2013-04-09 06:40:00,66.8,65.0,29.84,SSE,157,3.0,-999.0,92,-99.99,,,0.00,weatherlink.com 1.10,2013-04-09 11:40:00,
2013-04-09 06:55:00,66.6,64.0,29.84,SSE,165,2.0,-999.0,92,-99.99,,,0.00,weatherlink.com 1.10,2013-04-09 11:55:00,
2013-04-09 07:10:00,66.6,64.0,29.84,SSE,150,0.0,-999.0,92,-99.99,,,0.00,weatherlink.com 1.10,2013-04-09 12:10:00,
2013-04-09 07:25:00,66.8,65.0,29.84,SE,143,4.0,-999.0,92,-99.99,,,0.00,weatherlink.com 1.10,2013-04-09 12:25:00,
2013-04-09 07:40:00,67.1,65.0,29.84,South,172,2.0,-999.0,93,-99.99,,,0.00,weatherlink.com 1.10,2013-04-09 12:40:00,
2013-04-09 07:55:00,67.4,65.0,29.85,SSE,155,0.0,-999.0,93,-99.99,,,0.00,weatherlink.com 1.10,2013-04-09 12:55:00,
2013-04-09 08:10:00,67.9,66.0,29.85,SSE,154,2.0,-999.0,93,-99.99,,,0.00,weatherlink.com 1.10,2013-04-09 13:10:00,
2013-04-09 08:25:00,68.8,67.0,29.86,SW,222,0.0,-999.0,93,-99.99,,,0.00,weatherlink.com 1.10,2013-04-09 13:25:00,
2013-04-09 08:40:00,69.3,67.0,29.86,SE,137,1.0,-999.0,92,-99.99,,,0.00,weatherlink.com 1.10,2013-04-09 13:40:00,
2013-04-09 08:55:00,69.6,67.0,29.86,South,181,4.0,-999.0,92,-99.99,,,0.00,weatherlink.com 1.10,2013-04-09 13:55:00,
2013-04-09 09:10:00,70.1,67.0,29.86,SSE,158,2.0,-999.0,91,-99.99,,,0.00,weatherlink.com 1.10,2013-04-09 14:10:00,
2013-04-09 09:25:00,70.9,68.0,29.86,SSE,165,1.0,-999.0,90,-99.99,,,0.00,weatherlink.com 1.10,2013-04-09 14:25:00,
2013-04-09 09:40:00,72.0,68.0,29.86,South,186,2.0,-999.0,88,-99.99,,,0.00,weatherlink.com 1.10,2013-04-09 14:40:00,
2013-04-09 09:55:00,73.0,69.0,29.85,SSE,160,3.0,-999.0,86,-99.99,,,0.00,weatherlink.com 1.10,2013-04-09 14:55:00,
2013-04-09 10:10:00,73.9,69.0,29.86,East,93,3.0,-999.0,85,-99.99,,,0.00,weatherlink.com 1.10,2013-04-09 15:10:00,
2013-04-09 10:25:00,75.1,69.0,29.85,South,172,2.0,-999.0,82,-99.99,,,0.00,weatherlink.com 1.10,2013-04-09 15:25:00,
2013-04-09 10:40:00,76.0,70.0,29.86,SSE,152,4.0,-999.0,81,-99.99,,,0.00,weatherlink.com 1.10,2013-04-09 15:40:00,
2013-04-09 10:55:00,76.7,70.0,29.86,SSE,148,3.0,-999.0,80,-99.99,,,0.00,weatherlink.com 1.10,2013-04-09 15:55:00,
2013-04-09 11:10:00,77.6,71.0,29.85,SSE,151,3.0,-999.0,79,-99.99,,,0.00,weatherlink.com 1.10,2013-04-09 16:10:00,
2013-04-09 11:25:00,78.3,70.0,29.86,South,178,7.0,-999.0,75,-99.99,,,0.00,weatherlink.com 1.10,2013-04-09 16:25:00,
2013-04-09 11:40:00,78.6,70.0,29.86,South,174,10.0,-999.0,75,-99.99,,,0.00,weatherlink.com 1.10,2013-04-09 16:40:00,
2013-04-09 11:55:00,79.0,71.0,29.86,ESE,120,6.0,-999.0,76,-99.99,,,0.00,weatherlink.com 1.10,2013-04-09 16:55:00,
2013-04-09 12:10:00,78.5,71.0,29.86,SSE,167,3.0,-999.0,78,-99.99,,,0.00,weatherlink.com 1.10,2013-04-09 17:10:00,
2013-04-09 12:25:00,77.9,70.0,29.85,South,171,6.0,-999.0,77,-99.99,,,0.00,weatherlink.com 1.10,2013-04-09 17:25:00,
2013-04-09 12:40:00,78.3,71.0,29.85,SSE,167,7.0,-999.0,77,-99.99,,,0.00,weatherlink.com 1.10,2013-04-09 17:40:00,
2013-04-09 12:55:00,78.8,71.0,29.84,SSE,162,4.0,-999.0,76,-99.99,,,0.00,weatherlink.com 1.10,2013-04-09 17:55:00,
2013-04-09 13:10:00,78.5,70.0,29.84,SSE,158,6.0,-999.0,76,-99.99,,,0.00,weatherlink.com 1.10,2013-04-09 18:10:00,
2013-04-09 13:25:00,78.8,71.0,29.84,SSW,192,2.0,-999.0,76,-99.99,,,0.00,weatherlink.com 1.10,2013-04-09 18:25:00,
2013-04-09 13:40:00,79.9,71.0,29.84,SSE,167,5.0,-999.0,74,-99.99,,,0.00,weatherlink.com 1.10,2013-04-09 18:40:00,
2013-04-09 13:54:00,80.1,71.0,29.83,SSE,154,2.0,-999.0,73,-99.99,,,0.00,weatherlink.com 1.10,2013-04-09 18:54:00,
2013-04-09 14:10:00,79.8,71.0,29.82,SSE,151,8.0,-999.0,74,-99.99,,,0.00,weatherlink.com 1.10,2013-04-09 19:10:00,
2013-04-09 14:24:00,79.6,71.0,29.82,SSE,152,7.0,-999.0,74,-99.99,,,0.00,weatherlink.com 1.10,2013-04-09 19:24:00,
2013-04-09 14:40:00,80.5,71.0,29.81,SSE,157,12.0,-999.0,73,-99.99,,,0.00,weatherlink.com 1.10,2013-04-09 19:40:00,
2013-04-09 14:55:00,79.9,71.0,29.81,SSW,208,11.0,-999.0,74,-99.99,,,0.00,weatherlink.com 1.10,2013-04-09 19:55:00,
2013-04-09 15:10:00,79.6,71.0,29.81,South,186,5.0,-999.0,74,-99.99,,,0.00,weatherlink.com 1.10,2013-04-09 20:10:00,
2013-04-09 15:25:00,79.6,71.0,29.81,South,171,6.0,-999.0,74,-99.99,,,0.00,weatherlink.com 1.10,2013-04-09 20:25:00,
2013-04-09 15:40:00,79.4,71.0,29.81,SSE,168,4.0,-999.0,75,-99.99,,,0.00,weatherlink.com 1.10,2013-04-09 20:40:00,
2013-04-09 15:55:00,79.4,70.0,29.81,SSE,162,5.0,-999.0,74,-99.99,,,0.00,weatherlink.com 1.10,2013-04-09 20:55:00,
2013-04-09 16:10:00,79.2,70.0,29.81,SSE,164,4.0,-999.0,74,-99.99,,,0.00,weatherlink.com 1.10,2013-04-09 21:10:00,
2013-04-09 16:40:00,78.8,70.0,29.80,ESE,121,6.0,-999.0,74,-99.99,,,0.00,weatherlink.com 1.10,2013-04-09 21:40:00,
2013-04-09 16:55:00,78.6,70.0,29.81,SE,131,2.0,-999.0,75,-99.99,,,0.00,weatherlink.com 1.10,2013-04-09 21:55:00,
2013-04-09 17:10:00,78.5,70.0,29.81,South,169,3.0,-999.0,75,-99.99,,,0.00,weatherlink.com 1.10,2013-04-09 22:10:00,
2013-04-09 17:25:00,78.5,70.0,29.81,SSW,195,3.0,-999.0,76,-99.99,,,0.00,weatherlink.com 1.10,2013-04-09 22:25:00,
2013-04-09 17:40:00,78.5,70.0,29.78,SSE,164,12.0,-999.0,76,-99.99,,,0.00,weatherlink.com 1.10,2013-04-09 22:40:00,
2013-04-09 17:55:00,78.6,70.0,29.74,SE,145,2.0,-999.0,74,-99.99,,,0.00,weatherlink.com 1.10,2013-04-09 22:55:00,
2013-04-09 18:10:00,78.6,70.0,29.75,ENE,75,6.0,-999.0,74,-99.99,,,0.00,weatherlink.com 1.10,2013-04-09 23:10:00,
2013-04-09 18:25:00,78.6,69.0,29.79,SE,138,8.0,-999.0,73,-99.99,,,0.00,weatherlink.com 1.10,2013-04-09 23:25:00,
2013-04-09 18:40:00,78.5,70.0,29.78,SSE,155,6.0,-999.0,74,-99.99,,,0.00,weatherlink.com 1.10,2013-04-09 23:40:00,
2013-04-09 18:55:00,78.3,69.0,29.78,SSE,155,4.0,-999.0,74,-99.99,,,0.00,weatherlink.com 1.10,2013-04-09 23:55:00,
2013-04-09 19:10:00,78.1,69.0,29.79,ESE,121,1.0,-999.0,74,-99.99,,,0.00,weatherlink.com 1.10,2013-04-10 00:10:00,
2013-04-09 19:25:00,77.7,69.0,29.79,SSE,160,7.0,-999.0,75,-99.99,,,0.00,weatherlink.com 1.10,2013-04-10 00:25:00,
2013-04-09 19:40:00,77.6,69.0,29.80,South,171,7.0,-999.0,75,-99.99,,,0.00,weatherlink.com 1.10,2013-04-10 00:40:00,
2013-04-09 19:55:00,77.2,69.0,29.81,South,176,3.0,-999.0,76,-99.99,,,0.00,weatherlink.com 1.10,2013-04-10 00:55:00,
2013-04-09 20:10:00,77.0,69.0,29.81,SSE,154,2.0,-999.0,77,-99.99,,,0.00,weatherlink.com 1.10,2013-04-10 01:10:00,
2013-04-09 20:25:00,76.7,69.0,29.82,South,175,8.0,-999.0,78,-99.99,,,0.00,weatherlink.com 1.10,2013-04-10 01:25:00,
2013-04-09 20:40:00,76.5,70.0,29.82,East,83,3.0,-999.0,79,-99.99,,,0.00,weatherlink.com 1.10,2013-04-10 01:40:00,
2013-04-09 20:55:00,76.3,69.0,29.81,SSE,160,6.0,-999.0,79,-99.99,,,0.00,weatherlink.com 1.10,2013-04-10 01:55:00,
2013-04-09 21:10:00,76.5,70.0,29.82,South,169,7.0,-999.0,79,-99.99,,,0.00,weatherlink.com 1.10,2013-04-10 02:10:00,
2013-04-09 21:25:00,76.5,69.0,29.85,SSE,155,7.0,-999.0,78,-99.99,,,0.00,weatherlink.com 1.10,2013-04-10 02:25:00,
2013-04-09 21:39:00,76.3,69.0,29.84,SSE,152,3.0,-999.0,78,-99.99,,,0.00,weatherlink.com 1.10,2013-04-10 02:39:00,
2013-04-09 21:55:00,76.0,69.0,29.82,SSE,148,3.0,-999.0,79,-99.99,,,0.00,weatherlink.com 1.10,2013-04-10 02:55:00,
2013-04-09 22:10:00,76.0,69.0,29.84,ESE,116,2.0,-999.0,78,-99.99,,,0.00,weatherlink.com 1.10,2013-04-10 03:10:00,
2013-04-09 22:25:00,75.8,69.0,29.82,SSE,151,2.0,-999.0,78,-99.99,,,0.00,weatherlink.com 1.10,2013-04-10 03:25:00,
2013-04-09 22:40:00,75.6,69.0,29.85,ESE,116,1.0,-999.0,79,-99.99,,,0.00,weatherlink.com 1.10,2013-04-10 03:40:00,
2013-04-09 22:55:00,75.4,69.0,29.84,South,185,0.0,-999.0,79,-99.99,,,0.00,weatherlink.com 1.10,2013-04-10 03:55:00,
2013-04-09 23:10:00,75.4,69.0,29.82,South,175,3.0,-999.0,80,-99.99,,,0.00,weatherlink.com 1.10,2013-04-10 04:10:00,
2013-04-09 23:25:00,75.4,69.0,29.81,ESE,123,5.0,-999.0,80,-99.99,,,0.00,weatherlink.com 1.10,2013-04-10 04:25:00,
2013-04-09 23:40:00,75.3,69.0,29.82,SSE,164,4.0,-999.0,81,-99.99,,,0.00,weatherlink.com 1.10,2013-04-10 04:40:00,
2013-04-09 23:55:00,75.3,69.0,29.83,ESE,104,7.0,-999.0,81,-99.99,,,0.00,weatherlink.com 1.10,2013-04-10 04:55:00,